sensor_id;sensor_type;location;lat;lon;timestamp;temperature;humidity
3202;DHT22;34843;48.744;8.958;2022-09-09T00:04:41;14.70;99.90
3202;DHT22;34843;48.744;8.958;2022-09-09T00:10:24;14.80;99.90
3202;DHT22;34843;48.744;8.958;2022-09-09T00:15:33;14.80;99.90
3202;DHT22;34843;48.744;8.958;2022-09-09T00:21:02;14.80;99.90
3202;DHT22;34843;48.744;8.958;2022-09-09T00:23:35;14.80;99.90
3202;DHT22;34843;48.744;8.958;2022-09-09T00:26:08;14.80;99.90
3202;DHT22;34843;48.744;8.958;2022-09-09T00:28:40;14.80;99.90
3202;DHT22;34843;48.744;8.958;2022-09-09T00:31:20;14.80;99.90
3202;DHT22;34843;48.744;8.958;2022-09-09T00:33:49;14.80;99.90
3202;DHT22;34843;48.744;8.958;2022-09-09T00:36:18;14.90;99.90
3202;DHT22;34843;48.744;8.958;2022-09-09T00:38:51;14.90;99.90
3202;DHT22;34843;48.744;8.958;2022-09-09T00:44:33;14.90;99.90
3202;DHT22;34843;48.744;8.958;2022-09-09T00:47:17;15.10;99.90
3202;DHT22;34843;48.744;8.958;2022-09-09T00:55:18;15.20;99.90
3202;DHT22;34843;48.744;8.958;2022-09-09T00:57:44;15.20;99.90
3202;DHT22;34843;48.744;8.958;2022-09-09T01:00:22;15.20;99.90
3202;DHT22;34843;48.744;8.958;2022-09-09T01:05:46;15.20;99.90
3202;DHT22;34843;48.744;8.958;2022-09-09T01:11:00;15.20;99.90
3202;DHT22;34843;48.744;8.958;2022-09-09T01:13:32;15.30;99.90
3202;DHT22;34843;48.744;8.958;2022-09-09T01:16:04;15.30;99.90
3202;DHT22;34843;48.744;8.958;2022-09-09T01:18:37;15.30;99.90
3202;DHT22;34843;48.744;8.958;2022-09-09T01:23:44;15.20;99.90
3202;DHT22;34843;48.744;8.958;2022-09-09T01:26:37;15.20;99.90
3202;DHT22;34843;48.744;8.958;2022-09-09T01:29:04;15.20;99.90
3202;DHT22;34843;48.744;8.958;2022-09-09T01:31:38;15.20;99.90
3202;DHT22;34843;48.744;8.958;2022-09-09T01:34:13;15.20;99.90
3202;DHT22;34843;48.744;8.958;2022-09-09T01:39:07;15.10;99.90
3202;DHT22;34843;48.744;8.958;2022-09-09T01:41:32;15.10;99.90
3202;DHT22;34843;48.744;8.958;2022-09-09T01:43:58;15.10;99.90
3202;DHT22;34843;48.744;8.958;2022-09-09T01:46:24;15.10;99.90
3202;DHT22;34843;48.744;8.958;2022-09-09T01:48:55;15.00;99.90
3202;DHT22;34843;48.744;8.958;2022-09-09T01:51:21;14.90;99.90
3202;DHT22;34843;48.744;8.958;2022-09-09T01:53:47;14.90;99.90
3202;DHT22;34843;48.744;8.958;2022-09-09T01:56:28;14.80;99.90
3202;DHT22;34843;48.744;8.958;2022-09-09T02:02:26;14.70;99.90
3202;DHT22;34843;48.744;8.958;2022-09-09T02:05:49;14.70;99.90
3202;DHT22;34843;48.744;8.958;2022-09-09T02:07:52;14.80;99.90
3202;DHT22;34843;48.744;8.958;2022-09-09T02:10:44;14.70;99.90
3202;DHT22;34843;48.744;8.958;2022-09-09T02:13:13;14.70;99.90
3202;DHT22;34843;48.744;8.958;2022-09-09T02:18:13;14.60;99.90
3202;DHT22;34843;48.744;8.958;2022-09-09T02:20:41;14.70;99.90
3202;DHT22;34843;48.744;8.958;2022-09-09T02:23:08;14.60;99.90
3202;DHT22;34843;48.744;8.958;2022-09-09T02:25:36;14.60;99.90
3202;DHT22;34843;48.744;8.958;2022-09-09T02:28:05;14.60;99.90
3202;DHT22;34843;48.744;8.958;2022-09-09T02:30:32;14.60;99.90
3202;DHT22;34843;48.744;8.958;2022-09-09T02:33:00;14.60;99.90
3202;DHT22;34843;48.744;8.958;2022-09-09T02:35:28;14.60;99.90
3202;DHT22;34843;48.744;8.958;2022-09-09T02:37:58;14.50;99.90
3202;DHT22;34843;48.744;8.958;2022-09-09T02:40:25;14.50;99.90
3202;DHT22;34843;48.744;8.958;2022-09-09T02:42:50;14.50;99.90
3202;DHT22;34843;48.744;8.958;2022-09-09T02:45:24;14.50;99.90
3202;DHT22;34843;48.744;8.958;2022-09-09T02:48:06;14.60;99.90
3202;DHT22;34843;48.744;8.958;2022-09-09T02:50:50;14.50;99.90
3202;DHT22;34843;48.744;8.958;2022-09-09T02:53:40;14.50;99.90
3202;DHT22;34843;48.744;8.958;2022-09-09T02:56:15;14.50;99.90
3202;DHT22;34843;48.744;8.958;2022-09-09T02:58:41;14.40;99.90
3202;DHT22;34843;48.744;8.958;2022-09-09T03:01:07;14.30;99.90
3202;DHT22;34843;48.744;8.958;2022-09-09T03:03:34;14.30;99.90
3202;DHT22;34843;48.744;8.958;2022-09-09T03:06:00;14.20;99.90
3202;DHT22;34843;48.744;8.958;2022-09-09T03:08:26;14.10;99.90
3202;DHT22;34843;48.744;8.958;2022-09-09T03:10:54;14.10;99.90
3202;DHT22;34843;48.744;8.958;2022-09-09T03:13:19;14.10;99.90
3202;DHT22;34843;48.744;8.958;2022-09-09T03:15:45;14.10;99.90
3202;DHT22;34843;48.744;8.958;2022-09-09T03:18:11;14.10;99.90
3202;DHT22;34843;48.744;8.958;2022-09-09T03:20:36;14.10;99.90
3202;DHT22;34843;48.744;8.958;2022-09-09T03:23:02;14.10;99.90
3202;DHT22;34843;48.744;8.958;2022-09-09T03:25:28;14.10;99.90
3202;DHT22;34843;48.744;8.958;2022-09-09T03:27:54;14.10;99.90
3202;DHT22;34843;48.744;8.958;2022-09-09T03:30:25;14.00;99.90
3202;DHT22;34843;48.744;8.958;2022-09-09T03:32:51;14.00;99.90
3202;DHT22;34843;48.744;8.958;2022-09-09T03:35:17;13.90;99.90
3202;DHT22;34843;48.744;8.958;2022-09-09T03:37:43;13.90;99.90
3202;DHT22;34843;48.744;8.958;2022-09-09T03:40:09;13.80;99.90
3202;DHT22;34843;48.744;8.958;2022-09-09T03:42:35;13.70;99.90
3202;DHT22;34843;48.744;8.958;2022-09-09T03:45:03;13.70;99.90
3202;DHT22;34843;48.744;8.958;2022-09-09T03:47:29;13.80;99.90
3202;DHT22;34843;48.744;8.958;2022-09-09T03:49:55;13.70;99.90
3202;DHT22;34843;48.744;8.958;2022-09-09T03:52:20;13.70;99.90
3202;DHT22;34843;48.744;8.958;2022-09-09T03:54:50;13.70;99.90
3202;DHT22;34843;48.744;8.958;2022-09-09T03:57:16;13.60;99.90
3202;DHT22;34843;48.744;8.958;2022-09-09T03:59:42;13.70;99.90
3202;DHT22;34843;48.744;8.958;2022-09-09T04:02:08;13.70;99.90
3202;DHT22;34843;48.744;8.958;2022-09-09T04:04:34;13.70;99.90
3202;DHT22;34843;48.744;8.958;2022-09-09T04:07:00;13.80;99.90
3202;DHT22;34843;48.744;8.958;2022-09-09T04:09:25;13.80;99.90
3202;DHT22;34843;48.744;8.958;2022-09-09T04:11:51;13.70;99.90
3202;DHT22;34843;48.744;8.958;2022-09-09T04:14:18;13.70;99.90
3202;DHT22;34843;48.744;8.958;2022-09-09T04:16:43;13.70;99.90
3202;DHT22;34843;48.744;8.958;2022-09-09T04:19:10;13.70;99.90
3202;DHT22;34843;48.744;8.958;2022-09-09T04:21:38;13.70;99.90
3202;DHT22;34843;48.744;8.958;2022-09-09T04:24:05;13.70;99.90
3202;DHT22;34843;48.744;8.958;2022-09-09T04:26:31;13.70;99.90
3202;DHT22;34843;48.744;8.958;2022-09-09T04:28:56;13.70;99.90
3202;DHT22;34843;48.744;8.958;2022-09-09T04:31:22;13.70;99.90
3202;DHT22;34843;48.744;8.958;2022-09-09T04:33:51;13.80;99.90
3202;DHT22;34843;48.744;8.958;2022-09-09T04:36:18;13.80;99.90
3202;DHT22;34843;48.744;8.958;2022-09-09T04:38:45;13.90;99.90
3202;DHT22;34843;48.744;8.958;2022-09-09T04:41:11;13.90;99.90
3202;DHT22;34843;48.744;8.958;2022-09-09T04:43:37;13.90;99.90
3202;DHT22;34843;48.744;8.958;2022-09-09T04:46:03;13.90;99.90
3202;DHT22;34843;48.744;8.958;2022-09-09T04:48:29;14.00;99.90
3202;DHT22;34843;48.744;8.958;2022-09-09T04:51:01;14.00;99.90
3202;DHT22;34843;48.744;8.958;2022-09-09T04:53:27;14.00;99.90
3202;DHT22;34843;48.744;8.958;2022-09-09T04:56:08;14.10;99.90
3202;DHT22;34843;48.744;8.958;2022-09-09T04:58:35;14.10;99.90
3202;DHT22;34843;48.744;8.958;2022-09-09T05:01:09;14.20;99.90
3202;DHT22;34843;48.744;8.958;2022-09-09T05:03:35;14.30;99.90
3202;DHT22;34843;48.744;8.958;2022-09-09T05:06:09;14.30;99.90
3202;DHT22;34843;48.744;8.958;2022-09-09T05:08:36;14.30;99.90
3202;DHT22;34843;48.744;8.958;2022-09-09T05:11:03;14.30;99.90
3202;DHT22;34843;48.744;8.958;2022-09-09T05:13:29;14.30;99.90
3202;DHT22;34843;48.744;8.958;2022-09-09T05:15:56;14.40;99.90
3202;DHT22;34843;48.744;8.958;2022-09-09T05:18:21;14.40;99.90
3202;DHT22;34843;48.744;8.958;2022-09-09T05:20:48;14.50;99.90
3202;DHT22;34843;48.744;8.958;2022-09-09T05:23:13;14.50;99.90
3202;DHT22;34843;48.744;8.958;2022-09-09T05:25:39;14.60;99.90
3202;DHT22;34843;48.744;8.958;2022-09-09T05:28:06;14.90;99.90
3202;DHT22;34843;48.744;8.958;2022-09-09T05:30:33;15.30;99.90
3202;DHT22;34843;48.744;8.958;2022-09-09T05:32:59;15.60;99.90
3202;DHT22;34843;48.744;8.958;2022-09-09T05:35:24;15.80;99.90
3202;DHT22;34843;48.744;8.958;2022-09-09T05:37:50;15.80;99.90
3202;DHT22;34843;48.744;8.958;2022-09-09T05:40:15;15.80;99.90
3202;DHT22;34843;48.744;8.958;2022-09-09T05:42:41;15.80;99.90
3202;DHT22;34843;48.744;8.958;2022-09-09T05:45:08;15.80;99.90
3202;DHT22;34843;48.744;8.958;2022-09-09T05:47:34;15.80;99.90
3202;DHT22;34843;48.744;8.958;2022-09-09T05:50:00;15.80;99.90
3202;DHT22;34843;48.744;8.958;2022-09-09T05:52:26;15.80;99.90
3202;DHT22;34843;48.744;8.958;2022-09-09T05:54:52;15.80;99.90
3202;DHT22;34843;48.744;8.958;2022-09-09T05:57:19;15.90;99.90
3202;DHT22;34843;48.744;8.958;2022-09-09T05:59:45;15.90;99.90
3202;DHT22;34843;48.744;8.958;2022-09-09T06:02:11;15.90;99.90
3202;DHT22;34843;48.744;8.958;2022-09-09T06:04:37;15.90;99.90
3202;DHT22;34843;48.744;8.958;2022-09-09T06:07:04;15.90;99.90
3202;DHT22;34843;48.744;8.958;2022-09-09T06:09:30;16.00;99.90
3202;DHT22;34843;48.744;8.958;2022-09-09T06:11:56;16.00;99.90
3202;DHT22;34843;48.744;8.958;2022-09-09T06:14:23;16.00;99.90
3202;DHT22;34843;48.744;8.958;2022-09-09T06:16:51;16.10;99.90
3202;DHT22;34843;48.744;8.958;2022-09-09T06:19:16;16.10;99.90
3202;DHT22;34843;48.744;8.958;2022-09-09T06:21:42;16.10;99.90
3202;DHT22;34843;48.744;8.958;2022-09-09T06:24:09;16.10;99.90
3202;DHT22;34843;48.744;8.958;2022-09-09T06:26:37;16.10;99.90
3202;DHT22;34843;48.744;8.958;2022-09-09T06:29:06;16.10;99.90
3202;DHT22;34843;48.744;8.958;2022-09-09T06:31:33;16.10;99.90
3202;DHT22;34843;48.744;8.958;2022-09-09T06:34:00;16.20;99.90
3202;DHT22;34843;48.744;8.958;2022-09-09T06:36:31;16.30;99.90
3202;DHT22;34843;48.744;8.958;2022-09-09T06:38:57;16.40;99.90
3202;DHT22;34843;48.744;8.958;2022-09-09T06:41:25;16.50;99.90
3202;DHT22;34843;48.744;8.958;2022-09-09T06:43:51;16.50;99.90
3202;DHT22;34843;48.744;8.958;2022-09-09T06:46:19;16.70;99.90
3202;DHT22;34843;48.744;8.958;2022-09-09T06:48:46;16.80;99.90
3202;DHT22;34843;48.744;8.958;2022-09-09T06:51:13;16.90;99.90
3202;DHT22;34843;48.744;8.958;2022-09-09T06:53:40;16.90;99.90
3202;DHT22;34843;48.744;8.958;2022-09-09T06:56:26;17.10;99.90
3202;DHT22;34843;48.744;8.958;2022-09-09T06:58:54;17.30;99.90
3202;DHT22;34843;48.744;8.958;2022-09-09T07:01:42;17.50;99.90
3202;DHT22;34843;48.744;8.958;2022-09-09T07:04:16;17.70;99.90
3202;DHT22;34843;48.744;8.958;2022-09-09T07:06:44;17.80;99.90
3202;DHT22;34843;48.744;8.958;2022-09-09T07:09:11;17.90;99.90
3202;DHT22;34843;48.744;8.958;2022-09-09T07:11:42;18.20;99.90
3202;DHT22;34843;48.744;8.958;2022-09-09T07:14:09;18.60;99.90
3202;DHT22;34843;48.744;8.958;2022-09-09T07:16:37;19.00;99.90
3202;DHT22;34843;48.744;8.958;2022-09-09T07:19:03;19.20;99.90
3202;DHT22;34843;48.744;8.958;2022-09-09T07:21:30;19.60;99.90
3202;DHT22;34843;48.744;8.958;2022-09-09T07:23:57;20.00;99.90
3202;DHT22;34843;48.744;8.958;2022-09-09T07:26:25;20.30;99.90
3202;DHT22;34843;48.744;8.958;2022-09-09T07:28:51;20.50;99.90
3202;DHT22;34843;48.744;8.958;2022-09-09T07:31:25;20.50;99.90
3202;DHT22;34843;48.744;8.958;2022-09-09T07:33:51;20.30;99.90
3202;DHT22;34843;48.744;8.958;2022-09-09T07:36:22;20.10;99.90
3202;DHT22;34843;48.744;8.958;2022-09-09T07:38:54;20.10;99.90
3202;DHT22;34843;48.744;8.958;2022-09-09T07:41:23;20.00;99.90
3202;DHT22;34843;48.744;8.958;2022-09-09T07:43:49;20.00;99.90
3202;DHT22;34843;48.744;8.958;2022-09-09T07:46:17;20.00;99.90
3202;DHT22;34843;48.744;8.958;2022-09-09T07:48:48;20.00;99.90
3202;DHT22;34843;48.744;8.958;2022-09-09T07:51:20;20.00;99.90
3202;DHT22;34843;48.744;8.958;2022-09-09T07:53:48;20.00;99.90
3202;DHT22;34843;48.744;8.958;2022-09-09T07:56:16;19.80;99.90
3202;DHT22;34843;48.744;8.958;2022-09-09T07:58:44;19.70;99.90
3202;DHT22;34843;48.744;8.958;2022-09-09T08:01:13;19.60;99.90
3202;DHT22;34843;48.744;8.958;2022-09-09T08:03:39;19.60;99.90
3202;DHT22;34843;48.744;8.958;2022-09-09T08:06:06;19.60;99.90
3202;DHT22;34843;48.744;8.958;2022-09-09T08:08:33;19.50;99.90
3202;DHT22;34843;48.744;8.958;2022-09-09T08:11:11;19.40;99.90
3202;DHT22;34843;48.744;8.958;2022-09-09T08:13:38;19.40;99.90
3202;DHT22;34843;48.744;8.958;2022-09-09T08:16:14;19.40;99.90
3202;DHT22;34843;48.744;8.958;2022-09-09T08:18:41;19.40;99.90
3202;DHT22;34843;48.744;8.958;2022-09-09T08:21:12;19.40;99.90
3202;DHT22;34843;48.744;8.958;2022-09-09T08:23:39;19.60;99.90
3202;DHT22;34843;48.744;8.958;2022-09-09T08:26:14;19.70;99.90
3202;DHT22;34843;48.744;8.958;2022-09-09T08:28:41;19.90;99.90
3202;DHT22;34843;48.744;8.958;2022-09-09T08:31:13;20.00;99.90
3202;DHT22;34843;48.744;8.958;2022-09-09T08:33:40;20.10;99.90
3202;DHT22;34843;48.744;8.958;2022-09-09T08:36:08;20.20;99.90
3202;DHT22;34843;48.744;8.958;2022-09-09T08:38:34;20.20;99.90
3202;DHT22;34843;48.744;8.958;2022-09-09T08:44:02;20.20;99.90
3202;DHT22;34843;48.744;8.958;2022-09-09T08:46:42;20.20;99.90
3202;DHT22;34843;48.744;8.958;2022-09-09T08:49:25;20.30;99.90
3202;DHT22;34843;48.744;8.958;2022-09-09T08:51:58;20.30;99.90
3202;DHT22;34843;48.744;8.958;2022-09-09T08:54:27;20.20;99.90
3202;DHT22;34843;48.744;8.958;2022-09-09T08:56:56;20.40;99.90
3202;DHT22;34843;48.744;8.958;2022-09-09T08:59:21;20.40;99.90
3202;DHT22;34843;48.744;8.958;2022-09-09T09:02:21;20.40;99.90
3202;DHT22;34843;48.744;8.958;2022-09-09T09:05:37;20.30;99.90
3202;DHT22;34843;48.744;8.958;2022-09-09T09:09:01;20.30;99.90
3202;DHT22;34843;48.744;8.958;2022-09-09T09:11:27;20.20;99.90
3202;DHT22;34843;48.744;8.958;2022-09-09T09:14:07;20.10;99.90
3202;DHT22;34843;48.744;8.958;2022-09-09T09:19:23;20.00;99.90
3202;DHT22;34843;48.744;8.958;2022-09-09T09:22:04;20.00;99.90
3202;DHT22;34843;48.744;8.958;2022-09-09T09:27:13;20.00;99.90
3202;DHT22;34843;48.744;8.958;2022-09-09T09:29:40;20.00;99.90
3202;DHT22;34843;48.744;8.958;2022-09-09T09:32:12;20.00;99.90
3202;DHT22;34843;48.744;8.958;2022-09-09T09:34:38;20.00;99.90
3202;DHT22;34843;48.744;8.958;2022-09-09T09:37:15;20.00;99.90
3202;DHT22;34843;48.744;8.958;2022-09-09T09:39:42;20.10;99.90
3202;DHT22;34843;48.744;8.958;2022-09-09T09:42:12;20.10;99.90
3202;DHT22;34843;48.744;8.958;2022-09-09T09:44:39;20.20;99.90
3202;DHT22;34843;48.744;8.958;2022-09-09T09:47:14;20.30;99.90
3202;DHT22;34843;48.744;8.958;2022-09-09T09:49:55;20.40;99.90
3202;DHT22;34843;48.744;8.958;2022-09-09T09:52:23;20.40;99.90
3202;DHT22;34843;48.744;8.958;2022-09-09T09:54:50;20.50;99.90
3202;DHT22;34843;48.744;8.958;2022-09-09T09:57:18;20.50;99.90
3202;DHT22;34843;48.744;8.958;2022-09-09T09:59:44;20.60;99.90
3202;DHT22;34843;48.744;8.958;2022-09-09T10:02:19;20.80;99.90
3202;DHT22;34843;48.744;8.958;2022-09-09T10:04:45;20.80;99.90
3202;DHT22;34843;48.744;8.958;2022-09-09T10:07:21;21.00;99.90
3202;DHT22;34843;48.744;8.958;2022-09-09T10:09:55;21.10;99.90
3202;DHT22;34843;48.744;8.958;2022-09-09T10:12:37;21.00;99.90
3202;DHT22;34843;48.744;8.958;2022-09-09T10:20:58;21.30;99.90
3202;DHT22;34843;48.744;8.958;2022-09-09T10:26:31;21.70;99.90
3202;DHT22;34843;48.744;8.958;2022-09-09T10:35:03;22.50;99.90
3202;DHT22;34843;48.744;8.958;2022-09-09T10:37:53;22.80;99.90
3202;DHT22;34843;48.744;8.958;2022-09-09T10:40:26;22.90;99.90
3202;DHT22;34843;48.744;8.958;2022-09-09T10:45:56;23.10;99.90
3202;DHT22;34843;48.744;8.958;2022-09-09T10:51:13;22.80;99.90
3202;DHT22;34843;48.744;8.958;2022-09-09T10:56:29;21.60;99.90
3202;DHT22;34843;48.744;8.958;2022-09-09T10:59:00;21.30;99.90
3202;DHT22;34843;48.744;8.958;2022-09-09T11:01:39;21.00;99.90
3202;DHT22;34843;48.744;8.958;2022-09-09T11:04:35;20.80;99.90
3202;DHT22;34843;48.744;8.958;2022-09-09T11:07:04;20.40;99.90
3202;DHT22;34843;48.744;8.958;2022-09-09T11:09:36;20.20;99.90
3202;DHT22;34843;48.744;8.958;2022-09-09T11:12:05;20.10;99.90
3202;DHT22;34843;48.744;8.958;2022-09-09T11:14:42;20.00;99.90
3202;DHT22;34843;48.744;8.958;2022-09-09T11:17:15;19.70;99.90
3202;DHT22;34843;48.744;8.958;2022-09-09T11:19:43;19.30;99.90
3202;DHT22;34843;48.744;8.958;2022-09-09T11:22:34;19.00;99.90
3202;DHT22;34843;48.744;8.958;2022-09-09T11:25:22;18.70;99.90
3202;DHT22;34843;48.744;8.958;2022-09-09T11:42:18;17.90;99.90
3202;DHT22;34843;48.744;8.958;2022-09-09T11:44:43;17.90;99.90
3202;DHT22;34843;48.744;8.958;2022-09-09T11:47:20;18.10;99.90
3202;DHT22;34843;48.744;8.958;2022-09-09T11:49:48;18.30;99.90
3202;DHT22;34843;48.744;8.958;2022-09-09T11:52:24;18.50;99.90
3202;DHT22;34843;48.744;8.958;2022-09-09T11:54:51;18.90;99.90
3202;DHT22;34843;48.744;8.958;2022-09-09T11:57:33;19.20;99.90
3202;DHT22;34843;48.744;8.958;2022-09-09T12:00:00;19.40;99.90
3202;DHT22;34843;48.744;8.958;2022-09-09T12:02:28;19.40;99.90
3202;DHT22;34843;48.744;8.958;2022-09-09T12:09:59;19.50;99.90
3202;DHT22;34843;48.744;8.958;2022-09-09T12:12:29;19.50;99.90
3202;DHT22;34843;48.744;8.958;2022-09-09T12:14:59;19.60;99.90
3202;DHT22;34843;48.744;8.958;2022-09-09T12:17:27;19.70;99.90
3202;DHT22;34843;48.744;8.958;2022-09-09T12:20:02;19.80;99.90
3202;DHT22;34843;48.744;8.958;2022-09-09T12:23:36;19.90;99.90
3202;DHT22;34843;48.744;8.958;2022-09-09T12:28:52;19.90;99.90
3202;DHT22;34843;48.744;8.958;2022-09-09T12:33:46;20.00;99.90
3202;DHT22;34843;48.744;8.958;2022-09-09T12:36:30;20.10;99.90
3202;DHT22;34843;48.744;8.958;2022-09-09T12:38:59;20.20;99.90
3202;DHT22;34843;48.744;8.958;2022-09-09T12:41:35;20.30;99.90
3202;DHT22;34843;48.744;8.958;2022-09-09T12:44:06;20.40;99.90
3202;DHT22;34843;48.744;8.958;2022-09-09T12:46:38;20.40;99.90
3202;DHT22;34843;48.744;8.958;2022-09-09T12:49:18;20.40;99.90
3202;DHT22;34843;48.744;8.958;2022-09-09T12:51:48;20.40;99.90
3202;DHT22;34843;48.744;8.958;2022-09-09T12:54:14;20.40;99.90
3202;DHT22;34843;48.744;8.958;2022-09-09T12:56:45;20.30;99.90
3202;DHT22;34843;48.744;8.958;2022-09-09T12:59:26;20.20;99.90
3202;DHT22;34843;48.744;8.958;2022-09-09T13:01:58;20.30;99.90
3202;DHT22;34843;48.744;8.958;2022-09-09T13:04:24;20.40;99.90
3202;DHT22;34843;48.744;8.958;2022-09-09T13:06:50;20.70;99.90
3202;DHT22;34843;48.744;8.958;2022-09-09T13:09:18;20.70;99.90
3202;DHT22;34843;48.744;8.958;2022-09-09T13:11:48;20.80;99.90
3202;DHT22;34843;48.744;8.958;2022-09-09T13:14:18;20.90;99.90
3202;DHT22;34843;48.744;8.958;2022-09-09T13:16:55;20.80;99.90
3202;DHT22;34843;48.744;8.958;2022-09-09T13:19:21;21.10;99.90
3202;DHT22;34843;48.744;8.958;2022-09-09T13:21:47;21.20;99.90
3202;DHT22;34843;48.744;8.958;2022-09-09T13:24:31;21.30;99.90
3202;DHT22;34843;48.744;8.958;2022-09-09T13:26:59;21.40;99.90
3202;DHT22;34843;48.744;8.958;2022-09-09T13:29:27;21.40;99.90
3202;DHT22;34843;48.744;8.958;2022-09-09T13:31:53;21.40;99.90
3202;DHT22;34843;48.744;8.958;2022-09-09T13:34:32;21.40;99.90
3202;DHT22;34843;48.744;8.958;2022-09-09T13:37:06;21.30;99.90
3202;DHT22;34843;48.744;8.958;2022-09-09T13:39:36;21.30;99.90
3202;DHT22;34843;48.744;8.958;2022-09-09T13:42:03;21.40;99.90
3202;DHT22;34843;48.744;8.958;2022-09-09T13:44:31;21.40;99.90
3202;DHT22;34843;48.744;8.958;2022-09-09T13:49:30;21.80;99.90
3202;DHT22;34843;48.744;8.958;2022-09-09T13:52:12;22.00;99.90
3202;DHT22;34843;48.744;8.958;2022-09-09T13:54:39;22.00;99.90
3202;DHT22;34843;48.744;8.958;2022-09-09T13:57:05;22.00;99.90
3202;DHT22;34843;48.744;8.958;2022-09-09T13:59:31;22.00;99.90
3202;DHT22;34843;48.744;8.958;2022-09-09T14:01:57;21.90;99.90
3202;DHT22;34843;48.744;8.958;2022-09-09T14:04:22;21.90;99.90
3202;DHT22;34843;48.744;8.958;2022-09-09T14:06:49;21.80;99.90
3202;DHT22;34843;48.744;8.958;2022-09-09T14:09:17;21.70;99.90
3202;DHT22;34843;48.744;8.958;2022-09-09T14:11:44;21.80;99.90
3202;DHT22;34843;48.744;8.958;2022-09-09T14:14:10;21.70;99.90
3202;DHT22;34843;48.744;8.958;2022-09-09T14:16:36;21.60;99.90
3202;DHT22;34843;48.744;8.958;2022-09-09T14:19:03;21.60;99.90
3202;DHT22;34843;48.744;8.958;2022-09-09T14:21:29;21.60;99.90
3202;DHT22;34843;48.744;8.958;2022-09-09T14:23:54;21.50;99.90
3202;DHT22;34843;48.744;8.958;2022-09-09T14:26:20;21.50;99.90
3202;DHT22;34843;48.744;8.958;2022-09-09T14:28:48;21.50;99.90
3202;DHT22;34843;48.744;8.958;2022-09-09T14:31:14;21.60;99.90
3202;DHT22;34843;48.744;8.958;2022-09-09T14:33:40;21.80;99.90
3202;DHT22;34843;48.744;8.958;2022-09-09T14:36:06;21.90;99.90
3202;DHT22;34843;48.744;8.958;2022-09-09T14:38:34;21.80;99.90
3202;DHT22;34843;48.744;8.958;2022-09-09T14:41:00;21.80;99.90
3202;DHT22;34843;48.744;8.958;2022-09-09T14:43:28;21.80;99.90
3202;DHT22;34843;48.744;8.958;2022-09-09T14:45:55;21.80;99.90
3202;DHT22;34843;48.744;8.958;2022-09-09T14:48:21;21.80;99.90
3202;DHT22;34843;48.744;8.958;2022-09-09T14:50:47;22.20;99.90
3202;DHT22;34843;48.744;8.958;2022-09-09T14:53:12;22.00;99.90
3202;DHT22;34843;48.744;8.958;2022-09-09T14:55:38;22.10;99.90
3202;DHT22;34843;48.744;8.958;2022-09-09T14:58:04;22.20;99.90
3202;DHT22;34843;48.744;8.958;2022-09-09T15:00:31;22.20;99.90
3202;DHT22;34843;48.744;8.958;2022-09-09T15:02:57;22.10;99.90
3202;DHT22;34843;48.744;8.958;2022-09-09T15:05:23;21.90;99.90
3202;DHT22;34843;48.744;8.958;2022-09-09T15:07:49;21.80;99.90
3202;DHT22;34843;48.744;8.958;2022-09-09T15:10:15;21.70;99.90
3202;DHT22;34843;48.744;8.958;2022-09-09T15:12:42;21.70;99.90
3202;DHT22;34843;48.744;8.958;2022-09-09T15:15:08;21.70;99.90
3202;DHT22;34843;48.744;8.958;2022-09-09T15:17:34;21.80;99.90
3202;DHT22;34843;48.744;8.958;2022-09-09T15:20:02;21.90;99.90
3202;DHT22;34843;48.744;8.958;2022-09-09T15:22:28;22.00;99.90
3202;DHT22;34843;48.744;8.958;2022-09-09T15:24:53;22.30;99.90
3202;DHT22;34843;48.744;8.958;2022-09-09T15:27:19;22.40;99.90
3202;DHT22;34843;48.744;8.958;2022-09-09T15:29:45;22.50;99.90
3202;DHT22;34843;48.744;8.958;2022-09-09T15:32:10;22.50;99.90
3202;DHT22;34843;48.744;8.958;2022-09-09T15:34:36;22.40;99.90
3202;DHT22;34843;48.744;8.958;2022-09-09T15:37:01;22.10;99.90
3202;DHT22;34843;48.744;8.958;2022-09-09T15:39:27;22.00;99.90
3202;DHT22;34843;48.744;8.958;2022-09-09T15:41:53;21.80;99.90
3202;DHT22;34843;48.744;8.958;2022-09-09T15:44:18;21.60;99.90
3202;DHT22;34843;48.744;8.958;2022-09-09T15:46:45;21.40;99.90
3202;DHT22;34843;48.744;8.958;2022-09-09T15:49:19;21.10;99.90
3202;DHT22;34843;48.744;8.958;2022-09-09T15:51:46;21.00;99.90
3202;DHT22;34843;48.744;8.958;2022-09-09T15:54:17;20.80;99.90
3202;DHT22;34843;48.744;8.958;2022-09-09T15:56:44;20.70;99.90
3202;DHT22;34843;48.744;8.958;2022-09-09T15:59:10;20.60;99.90
3202;DHT22;34843;48.744;8.958;2022-09-09T16:01:36;20.50;99.90
3202;DHT22;34843;48.744;8.958;2022-09-09T16:04:04;20.40;99.90
3202;DHT22;34843;48.744;8.958;2022-09-09T16:06:29;20.30;99.90
3202;DHT22;34843;48.744;8.958;2022-09-09T16:08:57;20.20;99.90
3202;DHT22;34843;48.744;8.958;2022-09-09T16:11:25;20.10;99.90
3202;DHT22;34843;48.744;8.958;2022-09-09T16:13:52;20.00;99.90
3202;DHT22;34843;48.744;8.958;2022-09-09T16:16:20;19.80;99.90
3202;DHT22;34843;48.744;8.958;2022-09-09T16:18:52;19.80;99.90
3202;DHT22;34843;48.744;8.958;2022-09-09T16:21:22;19.60;99.90
3202;DHT22;34843;48.744;8.958;2022-09-09T16:23:49;19.40;99.90
3202;DHT22;34843;48.744;8.958;2022-09-09T16:26:16;19.20;99.90
3202;DHT22;34843;48.744;8.958;2022-09-09T16:28:42;19.10;99.90
3202;DHT22;34843;48.744;8.958;2022-09-09T16:31:11;18.80;99.90
3202;DHT22;34843;48.744;8.958;2022-09-09T16:33:39;18.60;99.90
3202;DHT22;34843;48.744;8.958;2022-09-09T16:36:10;18.40;99.90
3202;DHT22;34843;48.744;8.958;2022-09-09T16:38:36;18.20;99.90
3202;DHT22;34843;48.744;8.958;2022-09-09T16:41:03;18.20;99.90
3202;DHT22;34843;48.744;8.958;2022-09-09T16:43:31;18.10;99.90
3202;DHT22;34843;48.744;8.958;2022-09-09T16:45:56;18.10;99.90
3202;DHT22;34843;48.744;8.958;2022-09-09T16:48:22;18.20;99.90
3202;DHT22;34843;48.744;8.958;2022-09-09T16:50:48;18.20;99.90
3202;DHT22;34843;48.744;8.958;2022-09-09T16:53:14;18.20;99.90
3202;DHT22;34843;48.744;8.958;2022-09-09T16:55:41;18.30;99.90
3202;DHT22;34843;48.744;8.958;2022-09-09T16:58:15;18.20;99.90
3202;DHT22;34843;48.744;8.958;2022-09-09T17:00:41;18.20;99.90
3202;DHT22;34843;48.744;8.958;2022-09-09T17:03:10;18.20;99.90
3202;DHT22;34843;48.744;8.958;2022-09-09T17:05:40;18.10;99.90
3202;DHT22;34843;48.744;8.958;2022-09-09T17:08:05;18.00;99.90
3202;DHT22;34843;48.744;8.958;2022-09-09T17:10:31;17.90;99.90
3202;DHT22;34843;48.744;8.958;2022-09-09T17:12:57;17.80;99.90
3202;DHT22;34843;48.744;8.958;2022-09-09T17:15:22;17.70;99.90
3202;DHT22;34843;48.744;8.958;2022-09-09T17:17:49;17.70;99.90
3202;DHT22;34843;48.744;8.958;2022-09-09T17:20:19;17.60;99.90
3202;DHT22;34843;48.744;8.958;2022-09-09T17:22:44;17.50;99.90
3202;DHT22;34843;48.744;8.958;2022-09-09T17:25:10;17.40;99.90
3202;DHT22;34843;48.744;8.958;2022-09-09T17:27:36;17.00;99.90
3202;DHT22;34843;48.744;8.958;2022-09-09T17:30:02;17.10;99.90
3202;DHT22;34843;48.744;8.958;2022-09-09T17:32:28;16.90;99.90
3202;DHT22;34843;48.744;8.958;2022-09-09T17:34:54;16.80;99.90
3202;DHT22;34843;48.744;8.958;2022-09-09T17:37:20;16.80;99.90